createdAt,value
2023-02-24T00:07:05.964Z,100012.28
2023-02-24T00:17:12.549Z,100014.84
2023-02-24T00:27:16.147Z,100017.19
2023-02-24T00:37:25.650Z,100016.72
2023-02-24T00:47:28.808Z,100018.50
2023-02-24T00:57:35.648Z,100021.38
2023-02-24T01:07:38.899Z,100024.56
2023-02-24T01:17:46.357Z,100026.59
2023-02-24T01:27:55.259Z,100025.63
2023-02-24T01:38:01.940Z,100027.53
2023-02-24T01:48:10.548Z,100028.75
2023-02-24T01:58:23.265Z,100029.00
2023-02-24T02:08:26.746Z,100028.53
2023-02-24T02:18:41.379Z,100030.09
2023-02-24T02:29:14.887Z,100029.00
2023-02-24T02:39:27.225Z,100025.53
2023-02-24T02:49:36.244Z,100024.19
2023-02-24T02:59:49.577Z,100017.41
2023-02-24T03:09:58.595Z,100017.34
2023-02-24T03:20:18.610Z,100014.63
2023-02-24T03:30:27.976Z,100012.78
2023-02-24T03:40:36.307Z,100009.19
2023-02-24T03:50:43.524Z,100008.38
2023-02-24T04:00:56.583Z,100006.88
2023-02-24T04:11:05.823Z,100005.31
2023-02-24T04:21:10.245Z,100001.97
2023-02-24T04:31:17.869Z,99999.84
2023-02-24T04:41:23.566Z,99997.41
2023-02-24T04:51:26.673Z,99993.13
2023-02-24T05:01:33.566Z,99987.31
2023-02-24T05:11:36.892Z,99985.13
2023-02-24T05:21:42.123Z,99982.28
2023-02-24T05:31:45.216Z,99977.97
2023-02-24T05:41:50.763Z,99975.09
2023-02-24T05:51:55.347Z,99970.91
2023-02-24T06:02:01.179Z,99966.78
2023-02-24T06:12:04.583Z,99962.03
2023-02-24T06:22:13.884Z,99957.13
2023-02-24T06:32:17.350Z,99950.16
2023-02-24T06:42:21.911Z,99946.63
2023-02-24T06:52:26.684Z,99942.38
2023-02-24T07:02:39.803Z,99938.00
2023-02-24T07:12:45.272Z,99931.53
2023-02-24T07:22:50.538Z,99925.88
2023-02-24T07:32:55.720Z,99919.66
2023-02-24T07:43:02.267Z,99912.38
2023-02-24T07:53:05.993Z,99905.06
2023-02-24T08:03:10.393Z,99896.78
2023-02-24T08:13:13.535Z,99888.59
2023-02-24T08:23:18.944Z,99880.38
2023-02-24T08:33:23.825Z,99871.72
2023-02-24T08:43:30.022Z,99862.88
2023-02-24T08:53:33.313Z,99850.69
2023-02-24T09:03:46.339Z,99841.16
2023-02-24T09:13:52.096Z,99831.38
2023-02-24T09:23:56.728Z,99821.13
2023-02-24T09:34:04.304Z,99810.84
2023-02-24T09:44:19.132Z,99799.97
2023-02-24T09:54:25.097Z,99788.69
2023-02-24T10:04:49.481Z,99776.56
2023-02-24T10:15:17.941Z,99755.16
2023-02-24T10:25:36.763Z,99745.09
2023-02-24T10:35:43.528Z,99730.59
2023-02-24T10:45:48.231Z,99721.28
2023-02-24T10:55:54.042Z,99710.63
2023-02-24T11:06:04.485Z,99700.00
2023-02-24T11:17:17.573Z,99687.06
2023-02-24T11:27:55.022Z,99666.16
2023-02-24T11:38:08.037Z,99643.84
2023-02-24T11:48:18.508Z,99619.84
2023-02-24T11:58:25.313Z,99606.06
2023-02-24T12:08:37.259Z,99590.13
2023-02-24T12:18:47.556Z,99574.28
2023-02-24T12:29:16.626Z,99559.22
2023-02-24T12:39:23.003Z,99547.78
2023-02-24T12:49:50.425Z,99537.75
2023-02-24T12:59:57.071Z,99528.97
2023-02-24T13:10:19.970Z,99518.31
2023-02-24T13:20:29.494Z,99508.75
2023-02-24T13:30:47.422Z,99498.00
2023-02-24T13:40:51.153Z,99491.50
2023-02-24T13:51:24.501Z,99486.03
2023-02-24T14:01:29.523Z,99479.91
2023-02-24T14:11:38.371Z,99475.03
2023-02-24T14:21:48.301Z,99465.09
2023-02-24T14:31:55.803Z,99460.19
2023-02-24T14:42:12.684Z,99455.13
2023-02-24T14:52:22.550Z,99449.41
2023-02-24T15:02:33.440Z,99444.53
2023-02-24T15:12:46.420Z,99440.63
2023-02-24T15:22:52.941Z,99436.22
2023-02-24T15:33:04.480Z,99432.13
2023-02-24T15:43:10.749Z,99426.56
2023-02-24T15:53:23.510Z,99421.56
2023-02-24T16:03:29.507Z,99419.31
2023-02-24T16:13:36.728Z,99411.44
2023-02-24T16:23:41.002Z,99407.59
2023-02-24T16:33:54.629Z,99405.69
2023-02-24T16:44:00.897Z,99402.88
2023-02-24T16:54:07.569Z,99401.03
2023-02-24T17:04:14.498Z,99398.16
2023-02-24T17:14:20.981Z,99391.41
2023-02-24T17:24:26.479Z,99385.84
2023-02-24T17:34:30.999Z,99383.13
2023-02-24T17:44:34.124Z,99378.75
2023-02-24T17:54:43.893Z,99376.34
2023-02-24T18:04:49.296Z,99373.78
2023-02-24T18:15:07.412Z,99371.63
2023-02-24T18:25:11.314Z,99369.72
2023-02-24T18:35:16.177Z,99367.50
2023-02-24T18:45:20.265Z,99365.88
2023-02-24T18:55:24.848Z,99362.31
2023-02-24T19:05:37.883Z,99359.66
2023-02-24T19:15:45.019Z,99357.34
2023-02-24T19:25:48.067Z,99352.38
2023-02-24T19:35:53.663Z,99345.59
2023-02-24T19:45:56.693Z,99342.78
2023-02-24T19:56:01.506Z,99341.97
2023-02-24T20:06:16.041Z,99341.16
2023-02-24T20:16:24.013Z,99340.09
2023-02-24T20:26:27.157Z,99331.25
2023-02-24T20:36:41.069Z,99326.19
2023-02-24T20:46:44.140Z,99324.88
2023-02-24T20:56:53.142Z,99319.03
2023-02-24T21:06:56.981Z,99318.19
2023-02-24T21:17:01.239Z,99317.84
2023-02-24T21:27:04.332Z,99316.69
2023-02-24T21:37:08.799Z,99312.25
2023-02-24T21:47:11.578Z,99312.25
2023-02-24T21:57:17.366Z,99312.16
2023-02-24T22:07:23.061Z,99311.34
2023-02-24T22:17:28.040Z,99311.59
2023-02-24T22:27:30.866Z,99311.19
2023-02-24T22:37:35.406Z,99308.63
2023-02-24T22:47:39.449Z,99307.88
2023-02-24T22:57:43.690Z,99306.59
2023-02-24T23:07:48.663Z,99305.00
2023-02-24T23:17:53.410Z,99302.72
2023-02-24T23:27:56.302Z,99300.56
2023-02-24T23:38:00.660Z,99297.31
2023-02-24T23:48:04.074Z,99294.34
2023-02-24T23:58:09.824Z,99291.88
